createdAt,value
2019-03-23T00:01:25.432Z,8.63
2019-03-23T00:03:51.222Z,8.51
2019-03-23T00:06:17.001Z,8.39
2019-03-23T00:08:42.806Z,8.27
2019-03-23T00:11:08.623Z,8.30
2019-03-23T00:13:34.388Z,8.29
2019-03-23T00:16:00.180Z,8.33
2019-03-23T00:18:25.993Z,8.21
2019-03-23T00:20:51.783Z,8.21
2019-03-23T00:23:17.581Z,8.21
2019-03-23T00:25:43.379Z,8.25
2019-03-23T00:28:09.157Z,8.39
2019-03-23T00:30:34.957Z,8.41
2019-03-23T00:33:00.734Z,8.41
2019-03-23T00:35:26.538Z,8.39
2019-03-23T00:37:52.326Z,8.39
2019-03-23T00:40:18.134Z,8.43
2019-03-23T00:42:43.921Z,8.41
2019-03-23T00:45:09.914Z,8.27
2019-03-23T00:47:35.710Z,8.23
2019-03-23T00:50:02.035Z,8.13
2019-03-23T00:52:27.797Z,8.10
2019-03-23T00:54:53.603Z,8.01
2019-03-23T00:57:19.385Z,7.88
2019-03-23T00:59:45.176Z,7.92
2019-03-23T01:02:10.973Z,8.25
2019-03-23T01:04:36.809Z,8.40
2019-03-23T01:07:02.750Z,8.32
2019-03-23T01:09:28.554Z,8.10
2019-03-23T01:11:54.332Z,7.96
2019-03-23T01:14:20.146Z,7.68
2019-03-23T01:16:45.928Z,7.52
2019-03-23T01:19:11.712Z,7.29
2019-03-23T01:21:37.786Z,7.14
2019-03-23T01:24:03.688Z,7.04
2019-03-23T01:26:29.486Z,6.98
2019-03-23T01:28:55.410Z,7.03
2019-03-23T01:31:21.336Z,6.93
2019-03-23T01:33:47.116Z,6.94
2019-03-23T01:36:13.052Z,7.00
2019-03-23T01:38:38.832Z,6.96
2019-03-23T01:41:05.072Z,6.99
2019-03-23T01:43:31.014Z,6.95
2019-03-23T01:45:56.816Z,6.87
2019-03-23T01:48:22.594Z,6.85
2019-03-23T01:50:49.054Z,6.80
2019-03-23T01:53:14.836Z,6.80
2019-03-23T01:55:40.869Z,6.72
2019-03-23T01:58:06.661Z,6.72
2019-03-23T02:00:32.554Z,6.75
2019-03-23T02:02:58.450Z,6.72
2019-03-23T02:05:24.486Z,6.66
2019-03-23T02:07:50.268Z,6.71
2019-03-23T02:10:16.061Z,6.60
2019-03-23T02:12:41.921Z,6.48
2019-03-23T02:15:09.722Z,6.59
2019-03-23T02:17:35.909Z,6.70
2019-03-23T02:20:04.953Z,6.66
2019-03-23T02:22:30.747Z,6.60
2019-03-23T02:24:57.334Z,6.61
2019-03-23T02:27:23.510Z,6.67
2019-03-23T02:29:49.336Z,4.93
2019-03-23T02:32:15.829Z,6.61
2019-03-23T02:34:42.358Z,6.54
2019-03-23T02:37:08.142Z,6.55
2019-03-23T02:39:34.039Z,6.64
2019-03-23T02:41:59.821Z,6.62
2019-03-23T02:44:25.600Z,6.66
2019-03-23T02:46:51.398Z,6.63
2019-03-23T02:49:17.907Z,6.56
2019-03-23T02:51:43.999Z,6.55
2019-03-23T02:54:09.856Z,6.48
2019-03-23T02:56:35.618Z,6.31
2019-03-23T02:59:04.608Z,6.32
2019-03-23T03:01:30.395Z,6.28
2019-03-23T03:03:56.177Z,6.37
2019-03-23T03:06:22.302Z,6.28
2019-03-23T03:08:48.088Z,6.35
2019-03-23T03:11:13.913Z,6.25
2019-03-23T03:13:39.692Z,6.22
2019-03-23T03:16:05.486Z,6.28
2019-03-23T03:18:31.289Z,6.33
2019-03-23T03:20:57.096Z,6.23
2019-03-23T03:23:22.884Z,6.20
2019-03-23T03:25:48.661Z,6.22
2019-03-23T03:28:14.473Z,6.14
2019-03-23T03:30:40.258Z,6.13
2019-03-23T03:33:06.040Z,6.11
2019-03-23T03:35:31.815Z,6.16
2019-03-23T03:37:57.622Z,6.19
2019-03-23T03:40:23.398Z,6.27
2019-03-23T03:42:49.220Z,6.33
2019-03-23T03:45:22.963Z,6.33
2019-03-23T03:47:48.763Z,6.31
2019-03-23T03:50:14.547Z,6.28
2019-03-23T03:52:40.341Z,6.12
2019-03-23T03:55:06.625Z,6.12
2019-03-23T03:57:32.420Z,5.98
2019-03-23T03:59:58.212Z,5.98
2019-03-23T04:02:24.033Z,5.94
2019-03-23T04:04:49.814Z,5.90
2019-03-23T04:07:15.671Z,5.93
2019-03-23T04:09:41.440Z,5.92
2019-03-23T04:12:07.217Z,5.93
2019-03-23T04:14:33.016Z,5.95
2019-03-23T04:16:58.800Z,5.89
2019-03-23T04:19:24.745Z,5.83
2019-03-23T04:21:50.520Z,5.93
2019-03-23T04:24:16.315Z,5.93
2019-03-23T04:26:42.097Z,5.90
2019-03-23T04:29:07.904Z,5.84
2019-03-23T04:31:33.681Z,5.87
2019-03-23T04:33:59.473Z,5.88
2019-03-23T04:36:25.248Z,5.80
2019-03-23T04:38:51.041Z,5.85
2019-03-23T04:41:16.819Z,5.81
2019-03-23T04:43:42.608Z,5.91
2019-03-23T04:46:08.393Z,5.90
2019-03-23T04:48:34.188Z,5.85
2019-03-23T04:50:59.968Z,5.95
2019-03-23T04:53:25.759Z,5.97
2019-03-23T04:55:51.552Z,5.96
2019-03-23T04:58:17.332Z,5.96
2019-03-23T05:00:43.135Z,5.92
2019-03-23T05:03:08.919Z,5.97
2019-03-23T05:05:34.715Z,6.03
2019-03-23T05:08:00.496Z,6.12
2019-03-23T05:10:26.304Z,6.11
2019-03-23T05:12:52.090Z,6.06
2019-03-23T05:15:17.894Z,6.04
2019-03-23T05:17:43.671Z,6.04
2019-03-23T05:20:13.279Z,6.07
2019-03-23T05:22:39.075Z,6.02
2019-03-23T05:25:05.671Z,6.09
2019-03-23T05:27:31.457Z,6.14
2019-03-23T05:29:57.258Z,6.11
2019-03-23T05:32:23.042Z,6.21
2019-03-23T05:34:48.835Z,6.19
2019-03-23T05:37:14.614Z,6.17
2019-03-23T05:39:40.397Z,6.11
2019-03-23T05:42:06.304Z,6.22
2019-03-23T05:44:32.083Z,6.15
2019-03-23T05:46:57.895Z,6.12
2019-03-23T05:49:23.681Z,6.20
2019-03-23T05:51:49.483Z,6.23
2019-03-23T05:54:15.260Z,6.20
2019-03-23T05:56:41.053Z,6.23
2019-03-23T05:59:06.840Z,6.29
2019-03-23T06:01:32.636Z,6.33
2019-03-23T06:03:58.413Z,6.25
2019-03-23T06:06:24.210Z,6.33
2019-03-23T06:08:54.903Z,6.33
2019-03-23T06:11:17.694Z,6.29
2019-03-23T06:13:43.476Z,6.33
2019-03-23T06:16:09.275Z,6.27
2019-03-23T06:18:35.057Z,6.33
2019-03-23T06:21:00.864Z,6.37
2019-03-23T06:23:26.645Z,6.42
2019-03-23T06:25:52.437Z,6.45
2019-03-23T06:28:18.237Z,6.47
2019-03-23T06:30:44.031Z,6.54
2019-03-23T06:33:09.816Z,6.50
2019-03-23T06:35:35.629Z,6.50
2019-03-23T06:38:01.404Z,6.50
2019-03-23T06:40:27.202Z,6.57
2019-03-23T06:42:59.756Z,6.56
2019-03-23T06:45:20.773Z,6.55
2019-03-23T06:47:46.569Z,6.70
2019-03-23T06:50:12.649Z,6.78
2019-03-23T06:52:38.458Z,6.78
2019-03-23T06:55:05.647Z,6.78
2019-03-23T06:57:31.444Z,6.85
2019-03-23T06:59:57.225Z,6.92
2019-03-23T07:02:23.023Z,6.95
2019-03-23T07:04:49.617Z,6.91
2019-03-23T07:07:15.429Z,7.02
2019-03-23T07:09:41.218Z,7.02
2019-03-23T07:12:07.021Z,7.08
2019-03-23T07:14:32.797Z,7.14
2019-03-23T07:16:58.592Z,7.10
2019-03-23T07:19:24.367Z,7.17
2019-03-23T07:21:50.582Z,7.10
2019-03-23T07:24:16.474Z,7.19
2019-03-23T07:26:42.272Z,7.26
2019-03-23T07:29:08.066Z,7.26
2019-03-23T07:31:33.846Z,7.25
2019-03-23T07:33:59.642Z,7.30
2019-03-23T07:36:25.422Z,7.36
2019-03-23T07:38:51.224Z,7.31
2019-03-23T07:41:16.996Z,7.32
2019-03-23T07:43:42.799Z,7.26
2019-03-23T07:46:08.631Z,7.36
2019-03-23T07:48:34.378Z,7.40
2019-03-23T07:51:00.146Z,7.44
2019-03-23T07:53:25.941Z,7.47
2019-03-23T07:55:51.725Z,7.51
2019-03-23T07:58:17.529Z,7.55
2019-03-23T08:00:43.292Z,7.57
2019-03-23T08:03:09.094Z,7.57
2019-03-23T08:05:34.880Z,7.63
2019-03-23T08:08:00.684Z,7.67
2019-03-23T08:10:30.866Z,7.67
2019-03-23T08:12:56.664Z,7.64
2019-03-23T08:15:22.444Z,7.72
2019-03-23T08:17:48.228Z,7.81
2019-03-23T08:20:14.037Z,7.82
2019-03-23T08:22:39.837Z,7.76
2019-03-23T08:25:05.727Z,7.89
2019-03-23T08:27:31.510Z,7.99
2019-03-23T08:29:57.306Z,8.08
2019-03-23T08:32:23.086Z,8.04
2019-03-23T08:34:48.881Z,8.01
2019-03-23T08:37:14.662Z,7.83
2019-03-23T08:39:48.048Z,7.87
2019-03-23T08:42:08.152Z,8.06
2019-03-23T08:44:33.953Z,8.06
2019-03-23T08:46:59.734Z,8.06
2019-03-23T08:49:25.535Z,8.00
2019-03-23T08:51:51.315Z,8.00
2019-03-23T08:54:17.115Z,8.04
2019-03-23T08:56:42.897Z,8.08
2019-03-23T08:59:08.687Z,8.08
2019-03-23T09:01:34.463Z,8.13
2019-03-23T09:04:00.286Z,8.22
2019-03-23T09:06:26.064Z,8.30
2019-03-23T09:08:51.847Z,8.38
2019-03-23T09:11:20.740Z,8.41
2019-03-23T09:13:45.333Z,8.34
2019-03-23T09:16:11.142Z,8.46
2019-03-23T09:18:36.926Z,8.54
2019-03-23T09:21:02.736Z,8.59
2019-03-23T09:23:28.522Z,8.53
2019-03-23T09:25:54.347Z,8.63
2019-03-23T09:28:20.115Z,8.62
2019-03-23T09:30:45.910Z,8.62
2019-03-23T09:33:11.700Z,8.72
2019-03-23T09:35:39.379Z,8.75
2019-03-23T09:38:05.192Z,8.77
2019-03-23T09:40:30.999Z,8.85
2019-03-23T09:42:56.779Z,8.91
2019-03-23T09:45:22.578Z,8.97
2019-03-23T09:47:48.360Z,8.98
2019-03-23T09:50:14.465Z,8.96
2019-03-23T09:52:40.260Z,9.04
2019-03-23T09:55:06.460Z,8.96
2019-03-23T09:57:32.269Z,8.81
2019-03-23T09:59:58.058Z,8.89
2019-03-23T10:02:23.864Z,8.98
2019-03-23T10:04:49.647Z,9.05
2019-03-23T10:07:15.445Z,9.09
2019-03-23T10:09:41.239Z,9.25
2019-03-23T10:12:07.043Z,9.35
2019-03-23T10:14:32.827Z,9.52
2019-03-23T10:16:58.624Z,9.53
2019-03-23T10:19:24.572Z,9.58
2019-03-23T10:21:50.353Z,9.67
2019-03-23T10:24:16.164Z,9.77
2019-03-23T10:26:41.960Z,9.80
2019-03-23T10:29:07.745Z,9.95
2019-03-23T10:31:33.538Z,9.88
2019-03-23T10:33:59.320Z,9.92
2019-03-23T10:36:25.122Z,9.72
2019-03-23T10:38:50.908Z,9.88
2019-03-23T10:41:16.723Z,9.93
2019-03-23T10:43:42.507Z,9.91
2019-03-23T10:46:08.305Z,9.86
2019-03-23T10:48:34.084Z,9.92
2019-03-23T10:50:59.873Z,9.88
2019-03-23T10:53:25.713Z,9.91
2019-03-23T10:55:51.490Z,10.03
2019-03-23T10:58:17.297Z,9.96
2019-03-23T11:00:43.080Z,9.86
2019-03-23T11:03:08.896Z,9.92
2019-03-23T11:05:34.678Z,10.00
2019-03-23T11:08:00.512Z,10.06
2019-03-23T11:10:26.276Z,10.05
2019-03-23T11:12:52.084Z,10.23
2019-03-23T11:15:17.874Z,10.29
2019-03-23T11:17:43.667Z,10.36
2019-03-23T11:20:11.149Z,10.39
2019-03-23T11:22:36.970Z,10.46
2019-03-23T11:25:05.160Z,10.40
2019-03-23T11:27:30.999Z,10.42
2019-03-23T11:29:56.790Z,10.46
2019-03-23T11:32:22.570Z,10.31
2019-03-23T11:34:48.365Z,10.31
2019-03-23T11:37:14.216Z,10.42
2019-03-23T11:39:40.057Z,10.82
2019-03-23T11:42:05.839Z,10.98
2019-03-23T11:44:31.625Z,11.02
2019-03-23T11:46:57.410Z,11.03
2019-03-23T11:49:23.217Z,11.18
2019-03-23T11:51:49.006Z,10.98
2019-03-23T11:54:14.805Z,10.88
2019-03-23T11:56:40.600Z,11.18
2019-03-23T11:59:06.398Z,11.24
2019-03-23T12:01:32.189Z,11.55
2019-03-23T12:03:57.989Z,11.40
2019-03-23T12:06:24.188Z,11.43
2019-03-23T12:08:49.986Z,11.48
2019-03-23T12:11:15.780Z,11.42
2019-03-23T12:13:41.572Z,11.42
2019-03-23T12:16:07.363Z,11.36
2019-03-23T12:18:33.153Z,11.28
2019-03-23T12:20:58.969Z,11.23
2019-03-23T12:23:24.799Z,11.26
2019-03-23T12:25:50.572Z,11.51
2019-03-23T12:28:16.386Z,11.51
2019-03-23T12:30:42.181Z,11.47
2019-03-23T12:33:07.968Z,11.63
2019-03-23T12:35:33.769Z,11.87
2019-03-23T12:37:59.569Z,12.18
2019-03-23T12:40:25.356Z,12.51
2019-03-23T12:42:51.142Z,12.58
2019-03-23T12:45:16.949Z,12.58
2019-03-23T12:47:42.748Z,12.92
2019-03-23T12:50:09.438Z,12.33
2019-03-23T12:52:35.227Z,11.92
2019-03-23T12:55:01.123Z,11.80
2019-03-23T12:57:26.903Z,12.04
2019-03-23T12:59:52.693Z,12.05
2019-03-23T13:02:18.482Z,12.28
2019-03-23T13:04:44.308Z,12.43
2019-03-23T13:07:10.094Z,12.42
2019-03-23T13:09:35.889Z,12.19
2019-03-23T13:12:01.669Z,11.92
2019-03-23T13:14:27.461Z,11.92
2019-03-23T13:16:53.258Z,11.86
2019-03-23T13:19:19.044Z,11.72
2019-03-23T13:21:44.865Z,11.48
2019-03-23T13:24:12.558Z,11.22
2019-03-23T13:26:38.360Z,11.12
2019-03-23T13:29:04.142Z,11.15
2019-03-23T13:31:29.941Z,11.28
2019-03-23T13:33:55.731Z,11.72
2019-03-23T13:36:21.522Z,11.80
2019-03-23T13:38:47.305Z,11.92
2019-03-23T13:41:13.110Z,11.66
2019-03-23T13:43:38.889Z,11.81
2019-03-23T13:46:04.694Z,11.97
2019-03-23T13:48:30.476Z,11.79
2019-03-23T13:50:56.277Z,11.77
2019-03-23T13:53:22.071Z,11.82
2019-03-23T13:55:47.903Z,11.74
2019-03-23T13:58:13.787Z,11.98
2019-03-23T14:00:39.578Z,12.07
2019-03-23T14:03:06.374Z,11.81
2019-03-23T14:05:32.157Z,11.67
2019-03-23T14:07:57.955Z,11.59
2019-03-23T14:10:23.750Z,11.60
2019-03-23T14:12:49.546Z,11.34
2019-03-23T14:15:15.324Z,11.44
2019-03-23T14:17:41.116Z,11.52
2019-03-23T14:20:06.897Z,11.42
2019-03-23T14:22:32.705Z,11.59
2019-03-23T14:24:58.490Z,11.64
2019-03-23T14:27:24.312Z,11.50
2019-03-23T14:29:50.154Z,11.41
2019-03-23T14:32:15.958Z,11.41
2019-03-23T14:34:41.762Z,11.33
2019-03-23T14:37:07.673Z,11.32
2019-03-23T14:39:33.460Z,11.34
2019-03-23T14:42:04.893Z,11.13
2019-03-23T14:44:26.949Z,11.12
2019-03-23T14:46:52.746Z,11.19
2019-03-23T14:49:18.527Z,11.17
2019-03-23T14:51:44.322Z,11.10
2019-03-23T14:54:10.145Z,11.04
2019-03-23T14:56:35.935Z,10.97
2019-03-23T14:59:01.730Z,10.85
2019-03-23T15:01:27.515Z,10.82
2019-03-23T15:03:53.341Z,10.58
2019-03-23T15:06:19.101Z,10.52
2019-03-23T15:08:44.901Z,10.58
2019-03-23T15:11:10.689Z,10.58
2019-03-23T15:13:36.487Z,10.61
2019-03-23T15:16:02.283Z,10.72
2019-03-23T15:18:28.101Z,10.72
2019-03-23T15:20:53.884Z,10.54
2019-03-23T15:23:19.711Z,10.56
2019-03-23T15:25:45.493Z,10.56
2019-03-23T15:28:11.314Z,10.46
2019-03-23T15:30:37.093Z,10.47
2019-03-23T15:33:02.886Z,10.57
2019-03-23T15:35:28.683Z,10.67
2019-03-23T15:37:54.473Z,10.64
2019-03-23T15:40:20.269Z,10.66
2019-03-23T15:42:46.065Z,10.47
2019-03-23T15:45:12.061Z,10.34
2019-03-23T15:47:37.856Z,10.49
2019-03-23T15:50:04.866Z,10.29
2019-03-23T15:52:30.659Z,10.18
2019-03-23T15:54:56.455Z,10.04
2019-03-23T15:57:22.239Z,9.92
2019-03-23T15:59:48.034Z,9.88
2019-03-23T16:02:13.820Z,9.78
2019-03-23T16:04:39.616Z,9.75
2019-03-23T16:07:05.414Z,9.65
2019-03-23T16:09:31.216Z,9.54
2019-03-23T16:11:57.010Z,9.36
2019-03-23T16:14:22.803Z,9.36
2019-03-23T16:16:48.594Z,9.31
2019-03-23T16:19:14.398Z,9.26
2019-03-23T16:21:40.207Z,9.25
2019-03-23T16:24:05.989Z,9.35
2019-03-23T16:26:31.787Z,9.34
2019-03-23T16:28:57.570Z,9.25
2019-03-23T16:31:23.365Z,9.31
2019-03-23T16:33:49.157Z,9.24
2019-03-23T16:36:14.961Z,9.10
2019-03-23T16:38:40.746Z,9.04
2019-03-23T16:41:06.546Z,9.06
2019-03-23T16:43:32.324Z,9.00
2019-03-23T16:45:58.121Z,8.88
2019-03-23T16:48:23.980Z,8.72
2019-03-23T16:50:49.842Z,8.72
2019-03-23T16:53:15.632Z,8.83
2019-03-23T16:55:41.449Z,8.71
2019-03-23T16:58:15.694Z,8.66
2019-03-23T17:00:36.453Z,8.40
2019-03-23T17:03:03.250Z,8.46
2019-03-23T17:05:29.056Z,8.46
2019-03-23T17:07:54.834Z,8.44
2019-03-23T17:10:20.617Z,8.43
2019-03-23T17:12:55.096Z,8.45
2019-03-23T17:15:14.101Z,8.26
2019-03-23T17:17:39.896Z,8.30
2019-03-23T17:20:05.886Z,8.25
2019-03-23T17:22:31.696Z,8.13
2019-03-23T17:24:57.483Z,8.05
2019-03-23T17:27:23.301Z,7.89
2019-03-23T17:29:49.085Z,7.89
2019-03-23T17:32:14.892Z,7.81
2019-03-23T17:34:40.673Z,7.83
2019-03-23T17:37:06.529Z,7.79
2019-03-23T17:39:32.295Z,7.71
2019-03-23T17:41:58.089Z,7.72
2019-03-23T17:44:23.873Z,7.67
2019-03-23T17:46:49.669Z,7.60
2019-03-23T17:49:15.445Z,7.58
2019-03-23T17:51:41.242Z,7.48
2019-03-23T17:54:07.022Z,7.46
2019-03-23T17:56:32.886Z,7.43
2019-03-23T17:58:58.666Z,7.39
2019-03-23T18:01:24.453Z,7.33
2019-03-23T18:03:50.253Z,7.32
2019-03-23T18:06:16.047Z,7.22
2019-03-23T18:08:41.841Z,7.20
2019-03-23T18:11:07.626Z,7.19
2019-03-23T18:13:33.424Z,7.21
2019-03-23T18:15:59.208Z,7.14
2019-03-23T18:18:25.008Z,7.05
2019-03-23T18:20:50.790Z,7.07
2019-03-23T18:23:16.823Z,7.00
2019-03-23T18:25:42.596Z,6.95
2019-03-23T18:28:08.395Z,6.86
2019-03-23T18:30:39.209Z,6.85
2019-03-23T18:33:05.214Z,6.79
2019-03-23T18:35:31.090Z,6.76
2019-03-23T18:37:56.881Z,6.75
2019-03-23T18:40:22.671Z,6.72
2019-03-23T18:42:48.455Z,6.55
2019-03-23T18:45:14.268Z,6.40
2019-03-23T18:47:40.052Z,6.40
2019-03-23T18:50:05.957Z,6.38
2019-03-23T18:52:31.846Z,6.37
2019-03-23T18:54:57.735Z,6.34
2019-03-23T18:57:23.517Z,6.33
2019-03-23T18:59:49.328Z,6.26
2019-03-23T19:02:15.100Z,6.19
2019-03-23T19:04:40.895Z,6.15
2019-03-23T19:07:06.679Z,6.15
2019-03-23T19:09:32.493Z,6.09
2019-03-23T19:11:58.472Z,6.04
2019-03-23T19:14:24.278Z,6.09
2019-03-23T19:16:50.060Z,6.09
2019-03-23T19:19:15.858Z,6.10
2019-03-23T19:21:41.650Z,6.11
2019-03-23T19:24:07.444Z,6.07
2019-03-23T19:26:33.227Z,6.05
2019-03-23T19:28:59.036Z,6.03
2019-03-23T19:31:24.819Z,6.01
2019-03-23T19:33:50.595Z,6.00
2019-03-23T19:36:16.394Z,5.98
2019-03-23T19:38:42.177Z,5.91
2019-03-23T19:41:07.973Z,5.93
2019-03-23T19:43:33.759Z,5.86
2019-03-23T19:45:59.558Z,5.84
2019-03-23T19:48:25.344Z,5.77
2019-03-23T19:50:51.134Z,5.73
2019-03-23T19:53:17.033Z,5.71
2019-03-23T19:55:42.823Z,5.64
2019-03-23T19:58:08.606Z,5.59
2019-03-23T20:00:34.413Z,5.59
2019-03-23T20:03:00.194Z,5.56
2019-03-23T20:05:26.015Z,5.45
2019-03-23T20:07:51.777Z,5.36
2019-03-23T20:10:17.687Z,5.36
2019-03-23T20:12:43.465Z,5.27
2019-03-23T20:15:09.870Z,5.19
2019-03-23T20:17:35.652Z,5.18
2019-03-23T20:20:03.549Z,5.15
2019-03-23T20:22:29.345Z,5.07
2019-03-23T20:24:55.828Z,5.12
2019-03-23T20:27:21.613Z,5.06
2019-03-23T20:29:47.396Z,5.03
2019-03-23T20:32:13.194Z,4.97
2019-03-23T20:34:38.978Z,4.98
2019-03-23T20:37:04.780Z,4.93
2019-03-23T20:39:30.567Z,4.88
2019-03-23T20:41:56.370Z,4.89
2019-03-23T20:44:22.157Z,4.82
2019-03-23T20:46:48.043Z,4.80
2019-03-23T20:49:13.921Z,4.79
2019-03-23T20:51:40.039Z,4.76
2019-03-23T20:54:05.813Z,4.76
2019-03-23T20:56:31.606Z,4.74
2019-03-23T20:58:57.384Z,4.68
2019-03-23T21:01:23.176Z,4.66
2019-03-23T21:03:48.966Z,4.67
2019-03-23T21:06:14.762Z,4.61
2019-03-23T21:08:40.541Z,4.60
2019-03-23T21:11:06.329Z,4.64
2019-03-23T21:13:32.112Z,4.64
2019-03-23T21:15:57.931Z,4.65
2019-03-23T21:18:23.706Z,4.63
2019-03-23T21:20:49.484Z,4.55
2019-03-23T21:23:15.301Z,4.50
2019-03-23T21:25:41.081Z,4.50
2019-03-23T21:28:06.884Z,4.48
2019-03-23T21:30:32.673Z,4.44
2019-03-23T21:32:58.473Z,4.40
2019-03-23T21:35:24.245Z,4.37
2019-03-23T21:37:50.102Z,4.37
2019-03-23T21:40:15.838Z,4.34
2019-03-23T21:42:41.636Z,4.30
2019-03-23T21:45:08.126Z,4.31
2019-03-23T21:47:34.129Z,4.27
2019-03-23T21:49:59.913Z,4.28
2019-03-23T21:52:25.718Z,4.23
2019-03-23T21:54:51.505Z,4.27
2019-03-23T21:57:17.385Z,4.29
2019-03-23T21:59:43.185Z,4.34
2019-03-23T22:02:08.960Z,4.33
2019-03-23T22:04:35.037Z,4.38
2019-03-23T22:07:00.868Z,4.36
2019-03-23T22:09:26.662Z,4.26
2019-03-23T22:11:52.448Z,4.26
2019-03-23T22:14:18.387Z,4.20
2019-03-23T22:16:44.324Z,4.22
2019-03-23T22:19:10.116Z,4.15
2019-03-23T22:21:35.914Z,4.20
2019-03-23T22:24:01.708Z,4.17
2019-03-23T22:26:27.496Z,4.17
2019-03-23T22:28:53.289Z,4.15
2019-03-23T22:31:19.076Z,4.12
2019-03-23T22:33:44.871Z,4.09
2019-03-23T22:36:10.654Z,4.15
2019-03-23T22:38:36.454Z,4.15
2019-03-23T22:41:02.236Z,4.15
2019-03-23T22:43:28.046Z,4.20
2019-03-23T22:45:53.840Z,4.18
2019-03-23T22:48:19.622Z,4.15
2019-03-23T22:50:45.428Z,4.11
2019-03-23T22:53:11.217Z,4.05
2019-03-23T22:55:37.016Z,4.06
2019-03-23T22:58:02.897Z,4.08
2019-03-23T23:00:42.175Z,4.11
2019-03-23T23:03:08.264Z,4.15
2019-03-23T23:05:34.060Z,4.12
2019-03-23T23:07:59.842Z,4.06
2019-03-23T23:10:25.632Z,4.10
2019-03-23T23:12:51.422Z,4.06
2019-03-23T23:15:17.295Z,4.09
2019-03-23T23:17:43.074Z,4.17
2019-03-23T23:20:09.066Z,4.10
2019-03-23T23:22:34.856Z,4.05
2019-03-23T23:25:01.151Z,3.99
2019-03-23T23:27:26.933Z,3.95
2019-03-23T23:29:52.729Z,4.00
2019-03-23T23:32:18.508Z,3.93
2019-03-23T23:34:44.360Z,3.93
2019-03-23T23:37:10.107Z,3.99
2019-03-23T23:39:35.885Z,4.04
2019-03-23T23:42:01.677Z,4.04
2019-03-23T23:44:27.467Z,4.07
2019-03-23T23:46:53.275Z,4.13
2019-03-23T23:49:19.065Z,4.16
2019-03-23T23:51:50.084Z,4.07
2019-03-23T23:54:12.558Z,4.02
2019-03-23T23:56:38.408Z,3.97
2019-03-23T23:59:04.242Z,3.93
